createdAt,value
2023-03-12T00:02:21.986Z,1004.51
2023-03-12T00:05:29.807Z,1004.58
2023-03-12T00:08:37.812Z,1004.58
2023-03-12T00:11:45.664Z,1004.56
2023-03-12T00:14:53.376Z,1004.56
2023-03-12T00:18:01.144Z,1004.54
2023-03-12T00:21:08.766Z,1004.49
2023-03-12T00:24:17.220Z,1004.57
2023-03-12T00:27:25.366Z,1004.63
2023-03-12T00:30:32.759Z,1004.65
2023-03-12T00:33:40.824Z,1004.68
2023-03-12T00:36:48.855Z,1004.61
2023-03-12T00:39:56.388Z,1004.68
2023-03-12T00:43:04.860Z,1004.66
2023-03-12T00:46:13.081Z,1004.65
2023-03-12T00:49:20.612Z,1004.58
2023-03-12T00:52:29.032Z,1004.63
2023-03-12T00:55:37.402Z,1004.54
2023-03-12T00:58:44.973Z,1004.55
2023-03-12T01:01:53.251Z,1004.55
2023-03-12T01:05:01.323Z,1004.54
2023-03-12T01:08:08.916Z,1004.54
2023-03-12T01:11:16.957Z,1004.50
2023-03-12T01:14:24.673Z,1004.54
2023-03-12T01:17:32.596Z,1004.57
2023-03-12T01:20:40.670Z,1004.50
2023-03-12T01:23:48.527Z,1004.47
2023-03-12T01:26:56.297Z,1004.55
2023-03-12T01:30:04.261Z,1004.59
2023-03-12T01:33:12.813Z,1004.54
2023-03-12T01:36:20.973Z,1004.52
2023-03-12T01:39:28.842Z,1004.50
2023-03-12T01:42:37.160Z,1004.53
2023-03-12T01:45:45.037Z,1004.53
2023-03-12T01:48:52.959Z,1004.53
2023-03-12T01:52:00.976Z,1004.51
2023-03-12T01:55:12.546Z,1004.46
2023-03-12T01:58:20.574Z,1004.46
2023-03-12T02:01:27.714Z,1004.48
2023-03-12T02:04:35.609Z,1004.49
2023-03-12T02:07:42.789Z,1004.46
2023-03-12T02:10:50.866Z,1004.43
2023-03-12T02:13:58.686Z,1004.37
2023-03-12T02:17:06.416Z,1004.37
2023-03-12T02:20:13.986Z,1004.41
2023-03-12T02:23:22.081Z,1004.41
2023-03-12T02:26:29.402Z,1004.47
2023-03-12T02:29:37.533Z,1004.47
2023-03-12T02:32:44.900Z,1004.52
2023-03-12T02:35:53.531Z,1004.50
2023-03-12T02:39:01.352Z,1004.43
2023-03-12T02:42:08.921Z,1004.48
2023-03-12T02:45:16.520Z,1004.54
2023-03-12T02:48:24.502Z,1004.55
2023-03-12T02:51:31.545Z,1004.57
2023-03-12T02:54:39.633Z,1004.61
2023-03-12T02:57:46.746Z,1004.61
2023-03-12T03:00:54.736Z,1004.64
2023-03-12T03:04:02.416Z,1004.68
2023-03-12T03:07:10.066Z,1004.65
2023-03-12T03:10:17.679Z,1004.63
2023-03-12T03:13:26.190Z,1004.64
2023-03-12T03:16:33.373Z,1004.64
2023-03-12T03:19:41.555Z,1004.57
2023-03-12T03:22:48.849Z,1004.59
2023-03-12T03:25:56.917Z,1004.55
2023-03-12T03:29:04.519Z,1004.60
2023-03-12T03:32:12.147Z,1004.61
2023-03-12T03:35:19.726Z,1004.55
2023-03-12T03:38:27.301Z,1004.57
2023-03-12T03:41:34.873Z,1004.51
2023-03-12T03:44:42.985Z,1004.51
2023-03-12T03:47:50.366Z,1004.55
2023-03-12T03:50:58.952Z,1004.56
2023-03-12T03:54:06.634Z,1004.61
2023-03-12T03:57:14.351Z,1004.54
2023-03-12T04:00:22.214Z,1004.59
2023-03-12T04:03:29.878Z,1004.57
2023-03-12T04:06:37.269Z,1004.61
2023-03-12T04:09:45.622Z,1004.66
2023-03-12T04:12:52.826Z,1004.63
2023-03-12T04:16:00.928Z,1004.57
2023-03-12T04:19:08.228Z,1004.59
2023-03-12T04:22:16.420Z,1004.59
2023-03-12T04:25:24.247Z,1004.58
2023-03-12T04:28:31.807Z,1004.60
2023-03-12T04:31:39.562Z,1004.59
2023-03-12T04:34:47.719Z,1004.60
2023-03-12T04:37:55.029Z,1004.67
2023-03-12T04:41:03.002Z,1004.56
2023-03-12T04:44:12.680Z,1004.52
2023-03-12T04:47:20.551Z,1004.52
2023-03-12T04:50:28.236Z,1004.45
2023-03-12T04:53:36.013Z,1004.51
2023-03-12T04:56:43.600Z,1004.47
2023-03-12T04:59:51.169Z,1004.53
2023-03-12T05:02:58.862Z,1004.55
2023-03-12T05:06:07.054Z,1004.58
2023-03-12T05:09:14.191Z,1004.59
2023-03-12T05:12:22.142Z,1004.55
2023-03-12T05:15:29.373Z,1004.57
2023-03-12T05:18:36.798Z,1004.59
2023-03-12T05:21:44.323Z,1004.64
2023-03-12T05:24:51.995Z,1004.65
2023-03-12T05:27:59.373Z,1004.55
2023-03-12T05:31:07.404Z,1004.60
2023-03-12T05:34:14.482Z,1004.60
2023-03-12T05:37:22.783Z,1004.62
2023-03-12T05:40:30.570Z,1004.54
2023-03-12T05:43:38.201Z,1004.56
2023-03-12T05:46:45.842Z,1004.50
2023-03-12T05:49:53.412Z,1004.44
2023-03-12T05:53:01.055Z,1004.54
2023-03-12T05:56:08.916Z,1004.55
2023-03-12T05:59:16.087Z,1004.48
2023-03-12T06:02:24.245Z,1004.42
2023-03-12T06:05:32.150Z,1004.36
2023-03-12T06:08:39.388Z,1004.32
2023-03-12T06:11:46.949Z,1004.35
2023-03-12T06:14:54.835Z,1004.34
2023-03-12T06:18:02.098Z,1004.28
2023-03-12T06:21:10.012Z,1004.25
2023-03-12T06:24:18.003Z,1004.23
2023-03-12T06:27:25.089Z,1004.26
2023-03-12T06:30:33.069Z,1004.24
2023-03-12T06:33:40.664Z,1004.29
2023-03-12T06:36:47.836Z,1004.28
2023-03-12T06:39:55.596Z,1004.28
2023-03-12T06:43:02.979Z,1004.23
2023-03-12T06:46:10.805Z,1004.10
2023-03-12T06:49:18.709Z,1004.06
2023-03-12T06:52:26.258Z,1004.10
2023-03-12T06:55:33.909Z,1004.06
2023-03-12T06:58:41.356Z,1004.01
2023-03-12T07:01:49.558Z,1003.97
2023-03-12T07:04:57.207Z,1003.99
2023-03-12T07:08:04.773Z,1003.96
2023-03-12T07:11:13.147Z,1003.95
2023-03-12T07:14:20.649Z,1004.00
2023-03-12T07:17:28.122Z,1004.07
2023-03-12T07:20:35.953Z,1004.05
2023-03-12T07:23:43.496Z,1004.03
2023-03-12T07:26:50.851Z,1004.04
2023-03-12T07:29:58.866Z,1004.07
2023-03-12T07:33:06.240Z,1003.91
2023-03-12T07:36:14.629Z,1003.94
2023-03-12T07:39:22.612Z,1003.95
2023-03-12T07:42:29.743Z,1003.90
2023-03-12T07:45:37.496Z,1003.87
2023-03-12T07:48:45.700Z,1003.86
2023-03-12T07:51:52.891Z,1003.86
2023-03-12T07:55:00.130Z,1003.77
2023-03-12T07:58:07.897Z,1003.76
2023-03-12T08:01:14.958Z,1003.78
2023-03-12T08:04:23.183Z,1003.76
2023-03-12T08:07:30.989Z,1003.77
2023-03-12T08:10:38.952Z,1003.77
2023-03-12T08:13:46.576Z,1003.68
2023-03-12T08:16:54.030Z,1003.70
2023-03-12T08:20:01.485Z,1003.72
2023-03-12T08:23:01.646Z,1003.67
2023-03-12T08:26:08.955Z,1003.69
2023-03-12T08:29:16.265Z,1003.72
2023-03-12T08:32:23.611Z,1003.67
2023-03-12T08:35:33.841Z,1003.60
2023-03-12T08:38:41.755Z,1003.50
2023-03-12T08:41:49.461Z,1003.54
2023-03-12T08:44:57.717Z,1003.44
2023-03-12T08:48:05.530Z,1003.29
2023-03-12T08:51:13.829Z,1003.28
2023-03-12T08:54:13.459Z,1003.24
2023-03-12T08:57:21.199Z,1003.23
2023-03-12T09:00:28.340Z,1003.13
2023-03-12T09:03:35.804Z,1003.23
2023-03-12T09:06:43.333Z,1003.16
2023-03-12T09:09:50.868Z,1003.25
2023-03-12T09:12:58.781Z,1003.32
2023-03-12T09:16:05.926Z,1003.29
2023-03-12T09:19:13.057Z,1003.29
2023-03-12T09:22:21.552Z,1003.31
2023-03-12T09:25:29.174Z,1003.34
2023-03-12T09:28:36.513Z,1003.30
2023-03-12T09:31:44.110Z,1003.28
2023-03-12T09:34:51.801Z,1003.17
2023-03-12T09:37:59.219Z,1003.17
2023-03-12T09:41:06.761Z,1003.21
2023-03-12T09:44:14.040Z,1003.12
2023-03-12T09:47:21.266Z,1003.22
2023-03-12T09:50:28.673Z,1003.21
2023-03-12T09:53:35.942Z,1003.12
2023-03-12T09:56:42.973Z,1003.07
2023-03-12T09:59:50.934Z,1003.05
2023-03-12T10:02:58.310Z,1002.96
2023-03-12T10:06:05.453Z,1002.90
2023-03-12T10:09:13.776Z,1002.87
2023-03-12T10:12:20.957Z,1002.80
2023-03-12T10:15:28.578Z,1002.70
2023-03-12T10:18:36.510Z,1002.63
2023-03-12T10:21:43.652Z,1002.49
2023-03-12T10:24:51.191Z,1002.50
2023-03-12T10:27:58.864Z,1002.44
2023-03-12T10:31:06.452Z,1002.43
2023-03-12T10:34:13.561Z,1002.40
2023-03-12T10:37:20.960Z,1002.34
2023-03-12T10:40:28.285Z,1002.40
2023-03-12T10:43:35.742Z,1002.34
2023-03-12T10:46:43.131Z,1002.34
2023-03-12T10:49:50.403Z,1002.24
2023-03-12T10:52:57.643Z,1002.40
2023-03-12T10:56:04.914Z,1002.26
2023-03-12T10:59:12.770Z,1002.25
2023-03-12T11:02:20.054Z,1002.20
2023-03-12T11:05:28.050Z,1002.13
2023-03-12T11:08:35.621Z,1001.90
2023-03-12T11:11:42.548Z,1001.82
2023-03-12T11:14:50.270Z,1001.78
2023-03-12T11:17:57.882Z,1001.68
2023-03-12T11:21:05.247Z,1001.78
2023-03-12T11:24:12.925Z,1001.76
2023-03-12T11:27:19.928Z,1001.77
2023-03-12T11:30:27.668Z,1001.83
2023-03-12T11:33:35.300Z,1001.76
2023-03-12T11:36:42.269Z,1001.61
2023-03-12T11:39:49.599Z,1001.55
2023-03-12T11:42:57.051Z,1001.58
2023-03-12T11:46:04.054Z,1001.56
2023-03-12T11:49:11.790Z,1001.49
2023-03-12T11:52:19.175Z,1001.52
2023-03-12T11:55:27.087Z,1001.38
2023-03-12T11:58:34.596Z,1001.37
2023-03-12T12:01:42.049Z,1001.33
2023-03-12T12:04:49.599Z,1001.19
2023-03-12T12:07:56.800Z,1001.18
2023-03-12T12:11:04.507Z,1001.07
2023-03-12T12:14:12.103Z,1000.99
2023-03-12T12:17:19.619Z,1001.05
2023-03-12T12:20:27.007Z,1001.03
2023-03-12T12:23:34.090Z,1001.06
2023-03-12T12:26:41.979Z,1000.99
2023-03-12T12:29:49.411Z,1000.86
2023-03-12T12:32:56.814Z,1000.69
2023-03-12T12:36:04.558Z,1000.63
2023-03-12T12:39:12.052Z,1000.60
2023-03-12T12:42:19.503Z,1000.46
2023-03-12T12:45:27.362Z,1000.37
2023-03-12T12:48:35.713Z,1000.37
2023-03-12T12:51:43.186Z,1000.38
2023-03-12T12:54:51.165Z,1000.37
2023-03-12T12:57:58.938Z,1000.51
2023-03-12T13:01:06.698Z,1000.40
2023-03-12T13:04:13.802Z,1000.42
2023-03-12T13:07:21.545Z,1000.25
2023-03-12T13:10:29.281Z,1000.13
2023-03-12T13:13:36.341Z,1000.14
2023-03-12T13:16:44.125Z,1000.14
2023-03-12T13:20:00.926Z,1000.24
2023-03-12T13:22:56.082Z,1000.31
2023-03-12T13:26:04.006Z,1000.23
2023-03-12T13:29:12.931Z,1000.10
2023-03-12T13:32:20.440Z,1000.08
2023-03-12T13:35:28.097Z,1000.22
2023-03-12T13:38:35.451Z,1000.17
2023-03-12T13:41:42.655Z,1000.16
2023-03-12T13:44:50.122Z,1000.10
2023-03-12T13:47:57.958Z,999.98
2023-03-12T13:51:05.340Z,999.98
2023-03-12T13:54:12.825Z,1000.00
2023-03-12T13:57:20.557Z,999.83
2023-03-12T14:00:27.878Z,999.74
2023-03-12T14:03:35.438Z,999.67
2023-03-12T14:06:43.231Z,999.71
2023-03-12T14:09:50.872Z,999.54
2023-03-12T14:12:58.351Z,999.62
2023-03-12T14:16:05.893Z,999.60
2023-03-12T14:19:13.185Z,999.60
2023-03-12T14:22:20.930Z,999.54
2023-03-12T14:25:28.712Z,999.70
2023-03-12T14:28:35.833Z,999.54
2023-03-12T14:31:43.541Z,999.47
2023-03-12T14:34:51.005Z,999.50
2023-03-12T14:37:58.715Z,999.57
2023-03-12T14:41:06.762Z,999.43
2023-03-12T14:44:14.290Z,999.34
2023-03-12T14:47:21.831Z,999.33
2023-03-12T14:50:29.295Z,999.28
2023-03-12T14:53:36.831Z,999.32
2023-03-12T14:56:44.505Z,999.21
2023-03-12T14:59:52.057Z,999.33
2023-03-12T15:02:59.857Z,999.31
2023-03-12T15:06:07.057Z,999.30
2023-03-12T15:09:14.667Z,999.18
2023-03-12T15:12:23.284Z,999.14
2023-03-12T15:15:31.086Z,999.12
2023-03-12T15:18:38.990Z,999.07
2023-03-12T15:21:46.988Z,999.17
2023-03-12T15:24:54.150Z,999.23
2023-03-12T15:28:01.872Z,999.23
2023-03-12T15:31:10.069Z,999.08
2023-03-12T15:34:17.242Z,999.10
2023-03-12T15:37:25.331Z,999.01
2023-03-12T15:40:32.773Z,998.94
2023-03-12T15:43:40.093Z,999.00
2023-03-12T15:46:48.640Z,998.97
2023-03-12T15:49:56.036Z,998.89
2023-03-12T15:53:03.408Z,998.91
2023-03-12T15:56:10.564Z,998.84
2023-03-12T15:59:18.231Z,998.79
2023-03-12T16:02:26.008Z,998.84
2023-03-12T16:05:33.257Z,998.94
2023-03-12T16:08:40.961Z,998.97
2023-03-12T16:11:48.397Z,998.87
2023-03-12T16:14:55.979Z,998.82
2023-03-12T16:18:03.923Z,998.78
2023-03-12T16:21:11.099Z,998.92
2023-03-12T16:24:19.396Z,999.00
2023-03-12T16:27:32.531Z,998.91
2023-03-12T16:30:29.509Z,998.89
2023-03-12T16:33:37.368Z,998.96
2023-03-12T16:36:44.773Z,999.00
2023-03-12T16:39:52.602Z,998.97
2023-03-12T16:43:00.228Z,998.92
2023-03-12T16:46:07.807Z,998.93
2023-03-12T16:49:15.761Z,998.83
2023-03-12T16:52:23.222Z,998.91
2023-03-12T16:55:30.580Z,998.93
2023-03-12T16:58:38.471Z,998.95
2023-03-12T17:01:45.591Z,998.95
2023-03-12T17:04:53.048Z,998.97
2023-03-12T17:08:00.656Z,998.96
2023-03-12T17:11:07.822Z,999.00
2023-03-12T17:14:15.510Z,998.98
2023-03-12T17:17:23.498Z,999.03
2023-03-12T17:20:30.583Z,998.94
2023-03-12T17:23:38.762Z,999.10
2023-03-12T17:26:46.409Z,999.03
2023-03-12T17:29:54.399Z,999.07
2023-03-12T17:33:01.989Z,999.13
2023-03-12T17:36:09.876Z,999.20
2023-03-12T17:39:17.566Z,999.11
2023-03-12T17:42:25.626Z,999.20
2023-03-12T17:45:33.590Z,999.09
2023-03-12T17:48:41.373Z,999.14
2023-03-12T17:51:48.978Z,999.32
2023-03-12T17:54:56.573Z,999.19
2023-03-12T17:58:04.165Z,999.23
2023-03-12T18:01:13.474Z,999.17
2023-03-12T18:04:21.543Z,999.23
2023-03-12T18:07:29.222Z,999.14
2023-03-12T18:10:36.295Z,999.06
2023-03-12T18:13:44.284Z,999.14
2023-03-12T18:16:51.511Z,999.15
2023-03-12T18:19:59.523Z,999.11
2023-03-12T18:23:07.434Z,999.19
2023-03-12T18:26:14.451Z,999.16
2023-03-12T18:29:22.591Z,999.24
2023-03-12T18:32:30.142Z,999.31
2023-03-12T18:35:37.583Z,999.24
2023-03-12T18:38:45.420Z,999.28
2023-03-12T18:41:52.577Z,999.29
2023-03-12T18:45:00.430Z,999.28
2023-03-12T18:48:08.128Z,999.27
2023-03-12T18:51:16.204Z,999.24
2023-03-12T18:54:24.674Z,999.22
2023-03-12T18:57:32.416Z,999.25
2023-03-12T19:00:40.365Z,999.28
2023-03-12T19:03:47.660Z,999.38
2023-03-12T19:06:55.994Z,999.37
2023-03-12T19:10:03.476Z,999.41
2023-03-12T19:13:10.706Z,999.37
2023-03-12T19:16:18.435Z,999.39
2023-03-12T19:19:26.157Z,999.30
2023-03-12T19:22:33.878Z,999.24
2023-03-12T19:25:41.829Z,999.32
2023-03-12T19:28:49.362Z,999.42
2023-03-12T19:31:57.280Z,999.33
2023-03-12T19:35:04.830Z,999.36
2023-03-12T19:38:12.560Z,999.33
2023-03-12T19:41:20.165Z,999.32
2023-03-12T19:44:27.800Z,999.33
2023-03-12T19:47:35.686Z,999.42
2023-03-12T19:50:43.416Z,999.35
2023-03-12T19:53:50.714Z,999.40
2023-03-12T19:56:58.532Z,999.30
2023-03-12T20:00:05.753Z,999.33
2023-03-12T20:03:13.636Z,999.27
2023-03-12T20:06:21.341Z,999.32
2023-03-12T20:09:28.693Z,999.28
2023-03-12T20:12:36.752Z,999.21
2023-03-12T20:15:44.092Z,999.12
2023-03-12T20:18:52.149Z,999.15
2023-03-12T20:22:00.233Z,999.01
2023-03-12T20:25:07.606Z,998.98
2023-03-12T20:28:15.835Z,999.04
2023-03-12T20:31:23.428Z,999.06
2023-03-12T20:34:30.951Z,999.03
2023-03-12T20:37:38.832Z,999.07
2023-03-12T20:40:46.061Z,999.12
2023-03-12T20:43:53.699Z,999.08
2023-03-12T20:47:01.534Z,999.08
2023-03-12T20:50:09.109Z,999.07
2023-03-12T20:53:16.693Z,999.04
2023-03-12T20:56:24.185Z,999.04
2023-03-12T20:59:31.966Z,999.05
2023-03-12T21:02:39.381Z,999.12
2023-03-12T21:05:46.566Z,999.13
2023-03-12T21:08:55.074Z,999.11
2023-03-12T21:12:04.379Z,999.21
2023-03-12T21:15:12.673Z,999.22
2023-03-12T21:18:20.649Z,999.21
2023-03-12T21:21:27.907Z,999.19
2023-03-12T21:24:35.862Z,999.19
2023-03-12T21:27:50.551Z,999.16
2023-03-12T21:30:47.363Z,999.12
2023-03-12T21:33:55.053Z,999.10
2023-03-12T21:37:03.215Z,999.07
2023-03-12T21:40:10.435Z,999.04
2023-03-12T21:43:18.416Z,999.01
2023-03-12T21:46:25.845Z,998.98
2023-03-12T21:49:33.112Z,998.93
2023-03-12T21:52:43.353Z,998.87
2023-03-12T21:55:50.782Z,998.90
2023-03-12T21:58:58.418Z,998.88
2023-03-12T22:02:05.706Z,998.89
2023-03-12T22:05:13.051Z,998.87
2023-03-12T22:08:20.814Z,998.84
2023-03-12T22:11:28.223Z,998.75
2023-03-12T22:14:35.883Z,998.66
2023-03-12T22:17:43.364Z,998.66
2023-03-12T22:20:50.556Z,998.60
2023-03-12T22:23:58.336Z,998.61
2023-03-12T22:27:05.797Z,998.60
2023-03-12T22:30:13.339Z,998.54
2023-03-12T22:33:21.023Z,998.51
2023-03-12T22:36:28.139Z,998.56
2023-03-12T22:39:35.597Z,998.47
2023-03-12T22:42:43.568Z,998.44
2023-03-12T22:45:50.628Z,998.47
2023-03-12T22:48:58.433Z,998.44
2023-03-12T22:52:06.068Z,998.43
2023-03-12T22:55:13.638Z,998.44
2023-03-12T22:58:21.361Z,998.35
2023-03-12T23:01:28.889Z,998.31
2023-03-12T23:04:36.453Z,998.38
2023-03-12T23:07:44.378Z,998.23
2023-03-12T23:10:51.743Z,998.26
2023-03-12T23:13:59.129Z,998.19
2023-03-12T23:17:06.990Z,998.08
2023-03-12T23:20:14.552Z,998.02
2023-03-12T23:23:22.096Z,998.06
2023-03-12T23:26:29.681Z,997.99
2023-03-12T23:29:37.507Z,998.03
2023-03-12T23:32:44.841Z,998.05
2023-03-12T23:35:52.537Z,997.97
2023-03-12T23:39:00.506Z,997.95
2023-03-12T23:42:08.021Z,997.93
2023-03-12T23:45:15.607Z,997.91
2023-03-12T23:48:23.443Z,997.97
2023-03-12T23:51:30.878Z,997.90
2023-03-12T23:54:38.506Z,997.93
2023-03-12T23:57:46.350Z,997.78
